Time;durP1;ratioP1;P1;durP2;ratioP2;P2;SDS_P1;SDS_P2;PMS_P1;PMS_P2;Temp;Humidity;BMP_temperature;BMP_pressure;BME280_temperature;BME280_humidity;BME280_pressure;Samples;Min_cycle;Max_cycle;Signal;HPM_P1;HPM_P2
2023/08/26 00:02:22;;;;;;;9.20;2.28;;;;;;;19.25;100.00;99883.25;5223643;28;20299;-73
2023/08/26 00:04:52;;;;;;;10.50;2.70;;;;;;;19.34;100.00;99887.81;5225482;28;20450;-73
2023/08/26 00:07:22;;;;;;;5.93;2.70;;;;;;;19.39;100.00;99885.63;5223769;28;20079;-73
2023/08/26 00:09:53;;;;;;;5.05;2.83;;;;;;;19.42;100.00;99880.06;5227293;28;20059;-73
2023/08/26 00:12:23;;;;;;;8.18;2.28;;;;;;;19.48;100.00;99868.09;5221516;28;20475;-73
2023/08/26 00:14:53;;;;;;;4.22;2.40;;;;;;;19.51;100.00;99863.41;5225260;28;20017;-73
2023/08/26 00:17:23;;;;;;;5.00;2.45;;;;;;;19.51;100.00;99858.09;5223095;28;20502;-73
2023/08/26 00:19:54;;;;;;;4.72;2.30;;;;;;;19.54;100.00;99846.38;5230165;28;20029;-73
2023/08/26 00:22:24;;;;;;;10.13;3.28;;;;;;;19.24;100.00;99839.19;5220808;28;20025;-73
2023/08/26 00:24:55;;;;;;;4.43;2.70;;;;;;;19.09;100.00;99843.03;5219361;28;20016;-73
2023/08/26 00:27:25;;;;;;;6.32;2.50;;;;;;;19.06;100.00;99856.53;5220327;28;20035;-73
2023/08/26 00:29:55;;;;;;;3.72;2.50;;;;;;;19.03;100.00;99862.09;5217466;28;20029;-72
2023/08/26 00:32:26;;;;;;;6.47;2.67;;;;;;;19.02;100.00;99855.13;5222206;28;20025;-73
2023/08/26 00:34:57;;;;;;;6.93;2.67;;;;;;;19.02;100.00;99844.53;5224468;28;20045;-73
2023/08/26 00:37:27;;;;;;;5.63;2.85;;;;;;;19.03;100.00;99846.22;5206002;28;20029;-73
2023/08/26 00:39:57;;;;;;;4.68;2.53;;;;;;;18.99;100.00;99863.31;5216800;28;20029;-73
2023/08/26 00:42:27;;;;;;;6.40;2.40;;;;;;;19.02;100.00;99886.91;5214016;28;20030;-73
2023/08/26 00:44:58;;;;;;;7.35;2.97;;;;;;;18.95;100.00;99875.09;5216589;28;20034;-73
2023/08/26 00:47:28;;;;;;;7.60;3.10;;;;;;;19.04;100.00;99868.22;5215216;28;20437;-73
2023/08/26 00:49:58;;;;;;;4.70;2.72;;;;;;;18.96;100.00;99882.09;5222120;28;20074;-73
2023/08/26 00:52:30;;;;;;;5.32;3.03;;;;;;;19.05;100.00;99873.41;5224913;28;20452;-73
2023/08/26 00:55:00;;;;;;;5.85;3.25;;;;;;;19.05;100.00;99876.06;5226288;28;20398;-73
2023/08/26 00:57:31;;;;;;;5.28;2.85;;;;;;;19.06;100.00;99869.78;5226959;28;20024;-73
2023/08/26 01:00:01;;;;;;;5.85;2.97;;;;;;;19.12;100.00;99876.41;5225754;28;20045;-73
2023/08/26 01:02:32;;;;;;;4.53;2.88;;;;;;;18.98;100.00;99885.47;5224938;28;20060;-73
2023/08/26 01:05:05;;;;;;;7.05;3.05;;;;;;;18.83;100.00;99870.81;5229491;28;20029;-73
2023/08/26 01:07:35;;;;;;;7.82;2.70;;;;;;;18.88;100.00;99884.53;5224444;28;20029;-73
2023/08/26 01:10:06;;;;;;;9.10;3.47;;;;;;;18.89;100.00;99875.63;5229570;28;20391;-72
2023/08/26 01:12:55;;;;;;;9.80;2.92;;;;;;;18.88;100.00;99873.06;5223498;28;20115;-73
2023/08/26 01:15:28;;;;;;;6.07;2.97;;;;;;;18.98;100.00;99859.00;5225977;28;20025;-73
2023/08/26 01:18:05;;;;;;;6.20;2.88;;;;;;;18.95;100.00;99848.63;5231119;28;20500;-73
2023/08/26 01:20:36;;;;;;;7.97;2.85;;;;;;;18.85;100.00;99852.16;5226955;28;20036;-73
2023/08/26 01:23:10;;;;;;;6.65;2.97;;;;;;;18.90;100.00;99853.47;5231578;28;20043;-72
2023/08/26 01:25:41;;;;;;;4.72;3.08;;;;;;;19.01;100.00;99856.09;5233728;28;20482;-73
2023/08/26 01:28:11;;;;;;;9.85;2.90;;;;;;;18.86;100.00;99862.63;5233762;28;20024;-73
2023/08/26 01:30:42;;;;;;;6.60;2.92;;;;;;;18.76;100.00;99853.72;5221635;28;20028;-73
2023/08/26 01:33:20;;;;;;;5.50;2.78;;;;;;;18.69;100.00;99856.16;5223539;28;20025;-73
2023/08/26 01:35:57;;;;;;;8.45;3.15;;;;;;;18.75;100.00;99861.81;5232914;28;20035;-73
2023/08/26 01:38:29;;;;;;;6.00;2.60;;;;;;;18.81;100.00;99856.00;5227554;28;20028;-73
2023/08/26 01:41:02;;;;;;;6.20;3.10;;;;;;;18.82;100.00;99858.56;5230591;28;20037;-73
2023/08/26 01:43:34;;;;;;;7.10;2.90;;;;;;;18.91;100.00;99855.13;5222174;28;20021;-73
2023/08/26 01:46:05;;;;;;;8.48;3.00;;;;;;;19.00;100.00;99857.06;5219781;28;20426;-73
2023/08/26 01:48:35;;;;;;;5.70;3.10;;;;;;;19.09;100.00;99843.03;5216066;28;20045;-74
2023/08/26 01:51:05;;;;;;;8.32;3.33;;;;;;;19.12;100.00;99834.03;5227170;28;20077;-73
2023/08/26 01:53:35;;;;;;;9.40;3.75;;;;;;;19.03;100.00;99826.81;5224744;28;20421;-74
2023/08/26 01:56:06;;;;;;;7.25;3.40;;;;;;;19.10;100.00;99817.41;5225278;28;20032;-74
2023/08/26 01:58:36;;;;;;;5.38;3.90;;;;;;;19.08;100.00;99812.22;5216165;28;20034;-74
2023/08/26 02:01:06;;;;;;;8.30;2.93;;;;;;;19.07;100.00;99821.13;5222007;28;21358;-73
2023/08/26 02:03:37;;;;;;;7.22;3.05;;;;;;;19.03;100.00;99822.38;5224629;28;20280;-73
2023/08/26 02:06:07;;;;;;;8.00;2.92;;;;;;;19.08;100.00;99827.28;5222642;28;20036;-72
2023/08/26 02:08:37;;;;;;;5.82;3.17;;;;;;;19.07;100.00;99815.84;5222446;28;20128;-73
2023/08/26 02:11:09;;;;;;;8.93;3.53;;;;;;;19.04;100.00;99812.59;5226521;28;20262;-72
2023/08/26 02:13:40;;;;;;;7.05;4.10;;;;;;;19.05;100.00;99807.19;5221800;28;20703;-74
2023/08/26 02:16:10;;;;;;;7.45;3.45;;;;;;;18.79;100.00;99808.47;5221958;28;20055;-72
2023/08/26 02:18:40;;;;;;;7.00;3.47;;;;;;;18.92;100.00;99830.34;5220686;28;20033;-73
2023/08/26 02:21:11;;;;;;;7.18;3.85;;;;;;;18.92;100.00;99835.63;5219019;28;20021;-72
2023/08/26 02:23:41;;;;;;;7.78;3.70;;;;;;;18.90;100.00;99829.63;5222174;28;20387;-73
2023/08/26 02:26:12;;;;;;;4.05;3.30;;;;;;;18.95;100.00;99831.91;5224437;28;20031;-73
2023/08/26 02:28:42;;;;;;;9.10;4.18;;;;;;;19.00;100.00;99838.53;5225848;28;20039;-72
2023/08/26 02:31:12;;;;;;;6.03;3.75;;;;;;;19.06;100.00;99845.09;5220852;28;20107;-73
2023/08/26 02:33:43;;;;;;;6.15;3.38;;;;;;;19.04;100.00;99841.72;5222132;28;20018;-74
2023/08/26 02:36:13;;;;;;;7.53;3.88;;;;;;;19.13;100.00;99838.34;5219563;28;20175;-73
2023/08/26 02:38:43;;;;;;;5.88;3.20;;;;;;;19.17;100.00;99827.41;5226343;28;20025;-73
2023/08/26 02:41:14;;;;;;;8.88;3.50;;;;;;;19.13;100.00;99833.88;5226629;28;20174;-73
2023/08/26 02:43:44;;;;;;;5.65;3.50;;;;;;;19.19;100.00;99837.88;5223703;28;20021;-74
2023/08/26 02:46:14;;;;;;;6.28;3.63;;;;;;;19.13;100.00;99831.22;5224980;28;20113;-73
2023/08/26 02:48:45;;;;;;;4.65;3.17;;;;;;;19.20;100.00;99836.91;5228848;28;20035;-73
2023/08/26 02:51:15;;;;;;;4.97;3.47;;;;;;;19.23;100.00;99841.94;5224388;28;20504;-73
2023/08/26 02:53:45;;;;;;;8.32;4.10;;;;;;;19.15;100.00;99844.34;5220662;28;20028;-73
2023/08/26 02:56:15;;;;;;;8.40;4.22;;;;;;;19.18;100.00;99849.44;5221645;28;20062;-73
2023/08/26 02:58:46;;;;;;;7.32;4.20;;;;;;;19.25;100.00;99862.06;5224899;28;20043;-73
2023/08/26 03:01:16;;;;;;;7.07;4.90;;;;;;;19.32;100.00;99857.94;5219646;28;20671;-73
2023/08/26 03:03:46;;;;;;;9.57;4.88;;;;;;;19.39;100.00;99858.25;5222879;28;20029;-73
2023/08/26 03:06:17;;;;;;;8.07;5.53;;;;;;;19.43;100.00;99865.84;5224462;28;20039;-73
2023/08/26 03:08:47;;;;;;;7.95;5.28;;;;;;;19.51;100.00;99867.84;5220570;28;20411;-73
2023/08/26 03:11:17;;;;;;;10.10;5.80;;;;;;;19.55;100.00;99864.81;5222759;28;20024;-73
2023/08/26 03:13:51;;;;;;;10.30;5.90;;;;;;;19.60;100.00;99862.63;5226712;28;20087;-72
2023/08/26 03:16:21;;;;;;;9.20;6.15;;;;;;;19.66;100.00;99861.25;5223716;28;20024;-74
2023/08/26 03:18:52;;;;;;;9.45;6.70;;;;;;;19.70;100.00;99873.28;5221712;28;20020;-74
2023/08/26 03:21:24;;;;;;;11.93;6.65;;;;;;;19.74;100.00;99880.00;5220754;28;20017;-74
2023/08/26 03:23:54;;;;;;;12.10;6.75;;;;;;;19.73;100.00;99873.88;5221990;28;20021;-73
2023/08/26 03:26:24;;;;;;;9.80;7.00;;;;;;;19.77;100.00;99891.22;5221801;28;20407;-73
2023/08/26 03:28:55;;;;;;;10.57;7.60;;;;;;;19.74;100.00;99886.16;5225455;28;20020;-73
2023/08/26 03:31:25;;;;;;;8.82;6.90;;;;;;;19.73;100.00;99887.16;5222381;28;20316;-73
2023/08/26 03:33:55;;;;;;;10.98;7.05;;;;;;;19.74;100.00;99885.31;5225106;28;20178;-73
2023/08/26 03:36:26;;;;;;;10.77;7.15;;;;;;;19.74;100.00;99885.31;5224080;28;20035;-73
2023/08/26 03:38:56;;;;;;;10.15;7.03;;;;;;;19.74;100.00;99891.47;5225962;28;20193;-73
2023/08/26 03:41:26;;;;;;;10.10;7.55;;;;;;;19.75;100.00;99898.47;5225298;28;20467;-74
2023/08/26 03:43:57;;;;;;;11.52;7.32;;;;;;;19.77;100.00;99899.16;5224179;28;20040;-74
2023/08/26 03:46:27;;;;;;;11.73;8.30;;;;;;;19.79;100.00;99897.22;5218462;28;20692;-74
2023/08/26 03:48:57;;;;;;;10.48;7.38;;;;;;;19.86;100.00;99879.84;5214793;28;20120;-74
2023/08/26 03:51:27;;;;;;;10.75;8.30;;;;;;;19.87;100.00;99881.53;5213616;28;20029;-73
2023/08/26 03:53:58;;;;;;;12.27;7.88;;;;;;;19.88;100.00;99888.50;5221080;28;20044;-73
2023/08/26 03:56:28;;;;;;;10.85;7.85;;;;;;;19.89;100.00;99878.72;5219863;28;20479;-74
2023/08/26 03:58:58;;;;;;;11.90;8.88;;;;;;;19.90;100.00;99885.72;5224166;28;20694;-73
2023/08/26 04:01:31;;;;;;;10.45;7.90;;;;;;;19.90;100.00;99891.88;5220319;28;20029;-73
2023/08/26 04:04:01;;;;;;;12.98;8.57;;;;;;;19.89;100.00;99895.50;5228831;28;20028;-74
2023/08/26 04:06:32;;;;;;;11.52;7.80;;;;;;;19.97;100.00;99902.81;5222129;28;20032;-74
2023/08/26 04:09:03;;;;;;;13.98;8.13;;;;;;;19.98;100.00;99897.34;5227787;28;20039;-74
2023/08/26 04:11:33;;;;;;;12.05;8.02;;;;;;;19.93;100.00;99907.53;5224436;28;20029;-74
2023/08/26 04:14:04;;;;;;;12.57;8.55;;;;;;;20.02;100.00;99906.78;5225689;28;20025;-73
2023/08/26 04:16:35;;;;;;;12.85;8.32;;;;;;;19.96;100.00;99904.59;5218980;28;20028;-74
2023/08/26 04:19:06;;;;;;;11.50;8.20;;;;;;;19.98;100.00;99915.94;5227530;28;20260;-74
2023/08/26 04:21:36;;;;;;;11.75;8.43;;;;;;;19.97;100.00;99903.63;5227981;28;20072;-74
2023/08/26 04:24:06;;;;;;;14.93;8.35;;;;;;;20.00;100.00;99908.72;5224512;28;20029;-74
2023/08/26 04:26:37;;;;;;;15.50;9.25;;;;;;;19.97;100.00;99911.59;5220221;28;20033;-73
2023/08/26 04:29:07;;;;;;;12.27;8.95;;;;;;;19.98;100.00;99905.31;5210262;28;20036;-73
2023/08/26 04:31:37;;;;;;;11.98;8.40;;;;;;;19.99;100.00;99912.28;5224881;28;20395;-74
2023/08/26 04:34:08;;;;;;;11.93;7.30;;;;;;;19.99;100.00;99907.00;5223567;28;20027;-73
2023/08/26 04:36:38;;;;;;;16.83;9.18;;;;;;;19.95;100.00;99910.88;5219906;28;20020;-73
2023/08/26 04:39:11;;;;;;;15.32;8.90;;;;;;;20.03;100.00;99912.91;5227457;28;20031;-73
2023/08/26 04:41:43;;;;;;;14.05;9.43;;;;;;;19.97;100.00;99910.78;5223798;28;20495;-74
2023/08/26 04:44:17;;;;;;;15.88;10.13;;;;;;;19.96;100.00;99915.22;5224036;28;20428;-73
2023/08/26 04:46:47;;;;;;;17.38;9.95;;;;;;;19.92;100.00;99905.03;5219501;28;20026;-72
2023/08/26 04:49:18;;;;;;;15.05;10.07;;;;;;;19.91;100.00;99912.13;5219507;28;20102;-72
2023/08/26 04:51:51;;;;;;;16.75;10.50;;;;;;;19.87;100.00;99915.16;5219884;28;20057;-73
2023/08/26 04:54:22;;;;;;;14.95;9.63;;;;;;;19.95;100.00;99913.53;5227235;28;20031;-73
2023/08/26 04:56:52;;;;;;;18.02;10.27;;;;;;;19.97;100.00;99919.56;5222617;28;20123;-74
2023/08/26 04:59:22;;;;;;;17.48;10.35;;;;;;;19.91;100.00;99930.69;5223285;28;20467;-74
2023/08/26 05:01:52;;;;;;;17.15;10.20;;;;;;;19.89;100.00;99935.28;5221257;28;20498;-73
2023/08/26 05:04:23;;;;;;;18.67;10.97;;;;;;;19.93;100.00;99926.09;5221858;28;20058;-73
2023/08/26 05:06:54;;;;;;;18.95;10.63;;;;;;;19.89;100.00;99927.31;5222345;28;20274;-73
2023/08/26 05:09:24;;;;;;;16.67;11.00;;;;;;;19.99;100.00;99932.69;5217600;28;20025;-73
2023/08/26 05:11:57;;;;;;;18.23;11.60;;;;;;;20.05;100.00;99932.19;5224461;28;20104;-73
2023/08/26 05:14:27;;;;;;;15.98;10.90;;;;;;;20.14;100.00;99926.97;5222482;28;20303;-74
2023/08/26 05:16:57;;;;;;;22.48;12.40;;;;;;;20.07;100.00;99925.81;5224408;28;20130;-73
2023/08/26 05:19:27;;;;;;;23.15;12.20;;;;;;;20.17;100.00;99926.72;5223004;28;20044;-74
2023/08/26 05:21:58;;;;;;;20.27;12.27;;;;;;;20.22;100.00;99929.81;5228581;28;20119;-73
2023/08/26 05:24:30;;;;;;;18.35;12.13;;;;;;;20.20;100.00;99931.75;5226923;28;20032;-74
2023/08/26 05:27:00;;;;;;;20.38;11.60;;;;;;;20.35;100.00;99943.72;5229818;28;20070;-73
2023/08/26 05:29:31;;;;;;;17.55;11.93;;;;;;;20.66;100.00;99929.47;5222971;28;20014;-74
2023/08/26 05:32:01;;;;;;;19.08;11.40;;;;;;;21.17;100.00;99931.09;5227117;28;20036;-74
2023/08/26 05:34:31;;;;;;;15.13;10.57;;;;;;;21.50;100.00;99932.53;5225398;28;20048;-74
2023/08/26 05:37:02;;;;;;;16.00;10.35;;;;;;;21.65;100.00;99928.50;5229805;28;20111;-73
2023/08/26 05:39:32;;;;;;;14.55;10.48;;;;;;;22.27;100.00;99934.19;5225994;28;20036;-74
2023/08/26 05:42:02;;;;;;;15.30;10.40;;;;;;;22.59;100.00;99921.38;5229189;28;20056;-74
2023/08/26 05:44:33;;;;;;;16.13;9.43;;;;;;;23.18;100.00;99923.47;5223605;28;20486;-74
2023/08/26 05:47:04;;;;;;;15.88;10.40;;;;;;;23.43;100.00;99921.91;5224040;28;20223;-74
2023/08/26 05:49:34;;;;;;;13.45;8.90;;;;;;;23.30;100.00;99924.97;5226152;28;20044;-74
2023/08/26 05:52:04;;;;;;;15.13;8.80;;;;;;;22.92;100.00;99921.63;5228627;28;20477;-74
2023/08/26 05:54:35;;;;;;;13.70;9.25;;;;;;;22.43;100.00;99939.78;5224802;28;20286;-73
2023/08/26 05:57:05;;;;;;;16.15;9.85;;;;;;;22.12;100.00;99954.25;5225526;28;20385;-74
2023/08/26 05:59:35;;;;;;;15.55;9.50;;;;;;;22.10;100.00;99948.25;5223394;28;20024;-74
2023/08/26 06:02:06;;;;;;;14.25;8.95;;;;;;;22.10;100.00;99953.56;5222321;28;20033;-73
2023/08/26 06:04:36;;;;;;;15.43;9.50;;;;;;;21.85;100.00;99956.78;5223393;28;20398;-73
2023/08/26 06:07:06;;;;;;;16.43;9.40;;;;;;;21.91;100.00;99965.06;5228004;28;20251;-74
2023/08/26 06:09:37;;;;;;;19.02;10.52;;;;;;;22.13;100.00;99953.28;5226547;28;20271;-74
2023/08/26 06:12:08;;;;;;;15.30;10.32;;;;;;;22.25;100.00;99968.13;5223396;28;20032;-74
2023/08/26 06:14:38;;;;;;;17.55;11.00;;;;;;;22.30;100.00;99968.53;5224732;28;20035;-73
2023/08/26 06:17:09;;;;;;;16.90;10.10;;;;;;;22.30;100.00;99976.50;5224787;28;20025;-73
2023/08/26 06:19:39;;;;;;;20.88;11.27;;;;;;;22.60;100.00;99984.34;5227258;28;20283;-73
2023/08/26 06:22:09;;;;;;;15.82;9.60;;;;;;;22.69;100.00;99994.97;5218143;28;20055;-74
2023/08/26 06:24:40;;;;;;;18.88;10.05;;;;;;;22.59;100.00;99998.63;5216942;28;20067;-74
2023/08/26 06:27:10;;;;;;;20.05;9.65;;;;;;;22.71;100.00;99993.81;5220071;28;20114;-72
2023/08/26 06:29:45;;;;;;;14.97;9.27;;;;;;;22.67;100.00;99997.75;5217879;28;20120;-73
2023/08/26 06:32:15;;;;;;;13.38;8.90;;;;;;;22.83;100.00;99995.31;5224320;28;20302;-73
2023/08/26 06:34:46;;;;;;;13.63;8.38;;;;;;;22.77;100.00;99984.41;5223106;28;20064;-74
2023/08/26 06:37:16;;;;;;;15.77;9.98;;;;;;;22.36;100.00;99981.25;5224042;28;20025;-73
2023/08/26 06:39:47;;;;;;;12.85;8.73;;;;;;;22.44;100.00;99984.09;5221507;28;20056;-74
2023/08/26 06:42:17;;;;;;;14.75;8.60;;;;;;;23.22;100.00;99982.69;5223956;28;20474;-73
2023/08/26 06:44:47;;;;;;;15.55;7.97;;;;;;;24.94;97.14;99989.13;5220544;28;20115;-73
2023/08/26 06:47:18;;;;;;;11.87;7.13;;;;;;;26.30;88.97;99994.84;5224488;28;20055;-73
2023/08/26 06:49:48;;;;;;;12.67;7.33;;;;;;;26.41;88.92;99992.69;5224812;28;20963;-73
2023/08/26 06:52:18;;;;;;;12.25;6.13;;;;;;;27.16;82.94;99997.59;5225541;28;20283;-74
2023/08/26 06:54:48;;;;;;;9.00;5.73;;;;;;;26.17;85.55;100011.41;5222990;28;20033;-74
2023/08/26 06:57:19;;;;;;;10.23;6.20;;;;;;;25.53;90.16;100010.44;5222528;28;20282;-73
2023/08/26 06:59:49;;;;;;;8.27;4.73;;;;;;;27.44;84.65;100002.31;5224345;28;20024;-73
2023/08/26 07:02:20;;;;;;;8.15;4.85;;;;;;;26.89;82.46;100009.53;5226521;28;20282;-73
2023/08/26 07:04:50;;;;;;;10.03;6.57;;;;;;;25.34;86.92;100016.91;5215964;28;20029;-73
2023/08/26 07:07:20;;;;;;;10.10;6.20;;;;;;;25.44;88.79;100024.78;5224353;28;20279;-74
2023/08/26 07:09:50;;;;;;;8.90;5.93;;;;;;;24.74;88.71;100017.06;5226813;28;20262;-73
2023/08/26 07:12:21;;;;;;;10.32;5.18;;;;;;;26.76;84.45;100014.59;5229403;28;20541;-74
2023/08/26 07:14:51;;;;;;;9.85;5.47;;;;;;;26.61;80.98;100010.09;5215493;28;20036;-74
2023/08/26 07:17:22;;;;;;;10.77;4.78;;;;;;;26.47;80.18;100028.66;5214536;28;20024;-74
2023/08/26 07:19:53;;;;;;;9.82;5.65;;;;;;;25.02;87.28;100023.91;5218984;28;20025;-74
2023/08/26 07:22:23;;;;;;;11.73;6.25;;;;;;;24.08;89.07;100034.53;5220295;28;20025;-74
2023/08/26 07:24:53;;;;;;;9.35;5.65;;;;;;;24.22;90.16;100031.31;5217413;28;20033;-74
2023/08/26 07:27:24;;;;;;;11.57;6.20;;;;;;;23.68;92.55;100034.09;5221221;28;20025;-73
2023/08/26 07:29:54;;;;;;;9.68;6.25;;;;;;;23.24;95.34;100039.41;5214512;28;20284;-74
2023/08/26 07:32:24;;;;;;;9.43;5.75;;;;;;;22.88;99.17;100054.34;5215532;28;20032;-73
2023/08/26 07:34:54;;;;;;;11.67;6.63;;;;;;;22.35;99.71;100047.00;5214695;28;20021;-73
2023/08/26 07:37:25;;;;;;;9.65;6.45;;;;;;;22.29;100.00;100050.22;5205716;28;20329;-73
2023/08/26 07:39:55;;;;;;;10.93;6.30;;;;;;;22.16;100.00;100055.00;5211423;28;20025;-73
2023/08/26 07:42:26;;;;;;;10.85;6.28;;;;;;;22.02;100.00;100057.22;5205885;28;20476;-74
2023/08/26 07:44:56;;;;;;;11.63;5.53;;;;;;;21.89;100.00;100056.69;5204573;28;20872;-73
2023/08/26 07:47:27;;;;;;;9.75;5.53;;;;;;;21.82;100.00;100058.19;5211968;28;20271;-73
2023/08/26 07:49:57;;;;;;;12.27;6.22;;;;;;;21.86;100.00;100059.59;5213315;28;20103;-73
2023/08/26 07:52:27;;;;;;;7.32;5.00;;;;;;;21.79;100.00;100061.13;5209036;28;20029;-73
2023/08/26 07:54:58;;;;;;;8.02;4.53;;;;;;;21.92;100.00;100067.03;5209672;28;20041;-73
2023/08/26 07:57:28;;;;;;;8.10;5.30;;;;;;;22.04;100.00;100065.91;5204312;28;20104;-73
2023/08/26 07:59:58;;;;;;;12.50;5.72;;;;;;;22.16;97.33;100065.66;5206063;28;20300;-73
2023/08/26 08:02:29;;;;;;;9.50;5.38;;;;;;;22.42;95.07;100060.63;5207357;28;20021;-72
2023/08/26 08:04:59;;;;;;;7.95;4.90;;;;;;;22.41;92.51;100059.78;5205567;28;20128;-72
2023/08/26 08:07:30;;;;;;;8.47;4.80;;;;;;;23.31;86.96;100069.81;5202606;28;20072;-71
2023/08/26 08:10:00;;;;;;;8.47;2.30;;;;;;;22.35;79.30;100107.41;5206656;28;20292;-72
2023/08/26 08:12:30;;;;;;;4.20;1.98;;;;;;;21.17;77.82;100110.97;5208707;28;20895;-71
2023/08/26 08:15:01;;;;;;;3.15;1.42;;;;;;;20.55;77.10;100111.94;5217176;28;20514;-72
2023/08/26 08:17:32;;;;;;;2.88;1.20;;;;;;;20.89;74.95;100109.84;5212105;28;20037;-72
2023/08/26 08:20:03;;;;;;;3.67;1.23;;;;;;;20.63;74.72;100115.66;5213271;28;20037;-73
2023/08/26 08:22:39;;;;;;;5.72;1.10;;;;;;;20.83;75.14;100118.34;5215898;28;20052;-74
2023/08/26 08:25:09;;;;;;;2.22;1.23;;;;;;;20.76;73.46;100122.44;5206163;28;20553;-72
2023/08/26 08:27:40;;;;;;;4.32;1.30;;;;;;;21.21;72.02;100123.06;5198764;28;20033;-73
2023/08/26 08:30:11;;;;;;;6.22;0.80;;;;;;;23.65;68.75;100130.47;5208455;28;20044;-73
2023/08/26 08:32:41;;;;;;;2.17;0.88;;;;;;;25.55;63.33;100128.91;5207310;28;20537;-73
2023/08/26 08:35:11;;;;;;;2.55;1.08;;;;;;;26.26;61.28;100124.81;5209713;28;20266;-73
2023/08/26 08:37:42;;;;;;;4.53;1.77;;;;;;;26.44;59.82;100122.84;5205705;28;20032;-74
2023/08/26 08:40:13;;;;;;;3.08;1.63;;;;;;;25.98;61.10;100121.59;5208889;28;20048;-73
2023/08/26 08:42:44;;;;;;;2.67;0.95;;;;;;;25.37;59.46;100125.47;5211123;28;20029;-73
2023/08/26 08:45:14;;;;;;;2.97;1.27;;;;;;;26.43;57.54;100126.53;5213959;28;20045;-74
2023/08/26 08:47:46;;;;;;;2.45;0.80;;;;;;;27.25;55.15;100125.41;5214105;28;20022;-73
2023/08/26 08:50:17;;;;;;;2.00;0.55;;;;;;;27.91;53.55;100132.06;5217114;28;20030;-74
2023/08/26 08:52:51;;;;;;;4.63;1.10;;;;;;;27.44;56.11;100139.25;5213187;28;20091;-74
2023/08/26 08:55:22;;;;;;;2.50;0.70;;;;;;;28.71;52.90;100128.91;5218362;28;20416;-74
2023/08/26 08:57:53;;;;;;;5.00;0.85;;;;;;;27.79;52.35;100140.69;5214242;28;20027;-73
2023/08/26 09:00:27;;;;;;;4.55;0.73;;;;;;;28.26;53.23;100130.69;5214634;28;20380;-73
2023/08/26 09:02:59;;;;;;;2.17;0.52;;;;;;;29.20;51.90;100132.84;5214138;28;20060;-74
2023/08/26 09:05:30;;;;;;;2.78;0.80;;;;;;;28.80;52.82;100123.25;5214303;28;20422;-74
2023/08/26 09:08:02;;;;;;;1.17;0.50;;;;;;;29.94;50.05;100133.50;5216655;28;20037;-73
2023/08/26 09:10:33;;;;;;;1.77;0.55;;;;;;;28.99;51.28;100127.31;5217445;28;20040;-74
2023/08/26 09:13:05;;;;;;;1.95;0.50;;;;;;;28.43;52.53;100141.22;5219111;28;20029;-73
2023/08/26 09:15:35;;;;;;;1.27;0.50;;;;;;;29.28;52.32;100130.91;5214805;28;20561;-74
2023/08/26 09:18:13;;;;;;;6.23;0.70;;;;;;;29.15;51.24;100144.16;5213978;28;20037;-72
2023/08/26 09:20:45;;;;;;;1.95;0.70;;;;;;;27.71;52.54;100149.63;5212294;28;20304;-74
2023/08/26 09:23:16;;;;;;;1.33;0.63;;;;;;;28.53;52.87;100143.66;5215900;28;20024;-73
2023/08/26 09:25:53;;;;;;;1.80;0.60;;;;;;;28.64;52.87;100143.25;5216994;28;20040;-73
2023/08/26 09:28:24;;;;;;;1.98;0.60;;;;;;;27.26;54.53;100154.75;5213502;28;20387;-73
2023/08/26 09:31:05;;;;;;;1.73;0.70;;;;;;;26.43;56.48;100150.66;5212909;28;20045;-73
2023/08/26 09:33:35;;;;;;;2.85;0.90;;;;;;;26.05;58.09;100154.78;5212105;28;20065;-73
2023/08/26 09:36:05;;;;;;;2.43;0.80;;;;;;;25.77;59.33;100153.28;5216479;28;20723;-72
2023/08/26 09:38:44;;;;;;;6.50;1.08;;;;;;;25.64;59.91;100150.22;5213640;28;20272;-73
2023/08/26 09:41:22;;;;;;;1.10;0.55;;;;;;;25.65;61.68;100162.59;5215796;28;20466;-73
2023/08/26 09:43:52;;;;;;;2.40;0.90;;;;;;;24.85;62.65;100159.38;5214852;28;20108;-73
2023/08/26 09:46:23;;;;;;;2.50;0.90;;;;;;;24.87;63.51;100157.38;5215752;28;20548;-74
2023/08/26 09:48:57;;;;;;;2.35;0.85;;;;;;;24.76;62.62;100152.25;5220737;28;20035;-74
2023/08/26 09:51:28;;;;;;;3.67;0.88;;;;;;;24.71;62.18;100147.53;5217855;28;20040;-73
2023/08/26 09:53:59;;;;;;;2.28;0.90;;;;;;;24.21;63.10;100141.00;5208122;28;20509;-72
2023/08/26 09:56:29;;;;;;;2.55;0.80;;;;;;;24.56;65.21;100149.91;5227703;28;20124;-73
2023/08/26 09:59:00;;;;;;;2.90;0.93;;;;;;;24.71;63.55;100147.53;5213853;28;20032;-71
2023/08/26 10:01:30;;;;;;;1.55;0.70;;;;;;;24.65;64.23;100157.00;5211744;28;20388;-73
2023/08/26 10:04:08;;;;;;;2.70;0.70;;;;;;;24.60;64.48;100162.00;5208012;28;20648;-71
2023/08/26 10:07:05;;;;;;;1.63;0.70;;;;;;;24.51;62.55;100165.53;5213529;28;20126;-72
2023/08/26 10:10:04;;;;;;;;;;;;;;;24.39;61.21;100157.91;5205136;28;20029;-72
2023/08/26 10:12:41;;;;;;;3.17;0.50;;;;;;;24.53;62.09;100168.91;5193537;28;20008;-73
2023/08/26 10:15:14;;;;;;;1.75;0.57;;;;;;;24.12;61.75;100166.78;5209669;28;20437;-71
2023/08/26 10:17:48;;;;;;;2.20;0.60;;;;;;;23.76;61.07;100161.47;5208557;28;20021;-73
2023/08/26 10:20:19;;;;;;;4.85;1.10;;;;;;;24.08;64.18;100170.72;5218231;28;20033;-72
2023/08/26 10:22:50;;;;;;;2.80;0.65;;;;;;;23.88;61.69;100168.34;5212789;28;20070;-72
2023/08/26 10:25:21;;;;;;;3.78;1.00;;;;;;;23.69;63.80;100173.75;5213846;28;20020;-72
2023/08/26 10:27:52;;;;;;;1.45;0.68;;;;;;;23.76;64.29;100174.81;5205924;28;20106;-72
2023/08/26 10:30:23;;;;;;;3.60;0.85;;;;;;;23.66;65.14;100172.19;5218841;28;20099;-73
2023/08/26 10:33:00;;;;;;;1.90;0.55;;;;;;;23.85;63.75;100169.47;5220900;28;20382;-73
2023/08/26 10:35:31;;;;;;;2.75;0.65;;;;;;;24.03;63.28;100166.84;5209996;28;20088;-72
2023/08/26 10:38:11;;;;;;;2.47;0.75;;;;;;;24.21;63.32;100176.56;5216218;28;20044;-72
2023/08/26 10:40:41;;;;;;;3.60;0.70;;;;;;;24.21;62.79;100171.22;5215621;28;20025;-73
2023/08/26 10:43:12;;;;;;;1.50;0.50;;;;;;;24.14;62.50;100174.63;5223742;28;20211;-73
2023/08/26 10:45:47;;;;;;;1.75;0.60;;;;;;;23.70;61.50;100178.91;5222448;28;20036;-73
2023/08/26 10:48:18;;;;;;;2.07;0.57;;;;;;;23.95;64.37;100180.94;5218210;28;20032;-73
2023/08/26 10:51:02;;;;;;;1.52;0.60;;;;;;;24.14;63.10;100178.16;5210995;28;20745;-71
2023/08/26 10:53:43;;;;;;;2.70;1.00;;;;;;;23.95;63.02;100182.75;5205468;28;20037;-72
2023/08/26 10:56:18;;;;;;;2.42;0.70;;;;;;;23.49;63.42;100186.31;5212810;28;20115;-72
2023/08/26 10:58:48;;;;;;;2.78;0.90;;;;;;;23.58;65.02;100185.44;5219825;28;20040;-71
2023/08/26 11:01:19;;;;;;;2.78;0.70;;;;;;;23.21;65.59;100178.38;5219632;28;20078;-73
2023/08/26 11:03:49;;;;;;;2.13;0.55;;;;;;;23.37;65.09;100179.44;5217476;28;20132;-73
2023/08/26 11:06:22;;;;;;;1.40;0.47;;;;;;;23.16;64.88;100178.81;5214333;28;20394;-73
2023/08/26 11:08:53;;;;;;;2.78;0.63;;;;;;;23.02;65.68;100186.38;5205745;28;20695;-73
2023/08/26 11:11:25;;;;;;;3.17;0.85;;;;;;;22.92;64.68;100178.41;5211614;28;20087;-72
2023/08/26 11:13:55;;;;;;;5.22;0.70;;;;;;;23.33;66.96;100180.72;5204429;28;20086;-73
2023/08/26 11:16:26;;;;;;;1.77;0.55;;;;;;;23.41;65.10;100183.53;5213730;28;20024;-72
2023/08/26 11:18:57;;;;;;;1.73;0.47;;;;;;;23.50;65.16;100185.31;5207234;28;20044;-72
2023/08/26 11:21:27;;;;;;;2.65;0.60;;;;;;;23.11;64.74;100191.72;5216039;28;20371;-72
2023/08/26 11:23:58;;;;;;;4.80;0.70;;;;;;;23.09;66.78;100180.34;5222269;28;20048;-73
2023/08/26 11:26:28;;;;;;;4.25;0.75;;;;;;;22.77;66.27;100201.13;5217816;28;20630;-72
2023/08/26 11:29:00;;;;;;;3.80;0.50;;;;;;;22.85;65.75;100203.09;5218203;28;20446;-71
2023/08/26 11:31:32;;;;;;;2.90;0.68;;;;;;;22.98;64.92;100193.81;5209560;28;20032;-71
2023/08/26 11:34:02;;;;;;;1.02;0.50;;;;;;;23.15;66.90;100195.78;5209854;28;20086;-71
2023/08/26 11:36:32;;;;;;;2.17;0.80;;;;;;;23.07;64.81;100200.13;5210716;28;20032;-72
2023/08/26 11:39:03;;;;;;;2.85;0.80;;;;;;;23.02;66.22;100203.22;5203180;28;20251;-71
2023/08/26 11:41:33;;;;;;;3.22;0.68;;;;;;;22.55;66.04;100205.88;5197665;28;20028;-72